createdAt,value
2019-04-22T00:00:32.388Z,7.87
2019-04-22T00:02:59.820Z,8.21
2019-04-22T00:05:42.827Z,8.09
2019-04-22T00:08:18.148Z,7.84
2019-04-22T00:10:55.824Z,7.62
2019-04-22T00:13:26.229Z,7.30
2019-04-22T00:15:42.199Z,7.01
2019-04-22T00:18:25.950Z,6.78
2019-04-22T00:20:54.533Z,6.73
2019-04-22T00:23:20.394Z,6.75
2019-04-22T00:25:58.699Z,7.02
2019-04-22T00:28:36.582Z,7.26
2019-04-22T00:30:47.388Z,6.98
2019-04-22T00:33:29.091Z,6.72
2019-04-22T00:35:54.454Z,6.57
2019-04-22T00:38:31.532Z,6.51
2019-04-22T00:41:05.702Z,6.33
2019-04-22T00:43:46.242Z,6.22
2019-04-22T00:46:02.726Z,6.10
2019-04-22T00:48:35.953Z,6.04
2019-04-22T00:51:06.342Z,5.95
2019-04-22T00:53:35.374Z,5.84
2019-04-22T00:56:10.633Z,5.91
2019-04-22T01:01:17.016Z,6.29
2019-04-22T01:03:46.214Z,6.44
2019-04-22T01:06:13.063Z,5.96
2019-04-22T01:08:48.151Z,5.74
2019-04-22T01:11:13.350Z,5.57
2019-04-22T01:13:42.491Z,5.49
2019-04-22T01:16:13.794Z,5.41
2019-04-22T01:18:37.669Z,5.34
2019-04-22T01:21:17.054Z,5.31
2019-04-22T01:23:34.522Z,5.38
2019-04-22T01:26:05.124Z,5.43
2019-04-22T01:28:34.276Z,5.36
2019-04-22T01:30:55.634Z,5.26
2019-04-22T01:33:26.929Z,5.28
2019-04-22T01:36:08.072Z,5.46
2019-04-22T01:38:36.571Z,5.27
2019-04-22T01:41:20.198Z,5.09
2019-04-22T01:43:56.851Z,4.95
2019-04-22T01:46:18.388Z,4.90
2019-04-22T01:48:44.897Z,4.94
2019-04-22T01:51:07.623Z,5.14
2019-04-22T01:53:42.471Z,5.25
2019-04-22T01:56:17.495Z,5.07
2019-04-22T01:58:33.510Z,4.95
2019-04-22T02:01:04.901Z,4.91
2019-04-22T02:03:40.906Z,4.95
2019-04-22T02:06:18.032Z,5.10
2019-04-22T02:08:44.935Z,5.32
2019-04-22T02:11:17.335Z,5.24
2019-04-22T02:13:43.086Z,5.08
2019-04-22T02:16:15.147Z,4.97
2019-04-22T02:21:08.846Z,4.88
2019-04-22T02:23:51.215Z,4.81
2019-04-22T02:26:15.542Z,4.96
2019-04-22T02:31:25.845Z,4.87
2019-04-22T02:41:23.083Z,5.32
2019-04-22T02:46:33.154Z,5.58
2019-04-22T02:51:18.795Z,5.45
2019-04-22T02:54:15.182Z,5.28
2019-04-22T02:58:58.726Z,5.13
2019-04-22T03:01:25.672Z,5.08
2019-04-22T03:06:24.693Z,5.29
2019-04-22T03:08:51.309Z,5.38
2019-04-22T03:16:17.734Z,5.12
2019-04-22T03:18:55.057Z,4.94
2019-04-22T03:21:11.640Z,4.81
2019-04-22T03:26:22.549Z,4.91
2019-04-22T03:35:09.625Z,4.87
2019-04-22T03:42:05.161Z,4.22
2019-04-22T03:47:07.115Z,4.10
2019-04-22T03:54:29.604Z,4.32
2019-04-22T03:57:18.318Z,4.31
2019-04-22T03:59:28.682Z,4.30
2019-04-22T04:01:56.941Z,4.49
2019-04-22T04:04:24.219Z,4.49
2019-04-22T04:06:59.703Z,4.68
2019-04-22T04:12:01.979Z,4.83
2019-04-22T04:14:35.889Z,4.57
2019-04-22T04:16:56.276Z,4.22
2019-04-22T04:19:30.353Z,3.99
2019-04-22T04:24:32.020Z,3.91
2019-04-22T04:31:59.050Z,4.24
2019-04-22T04:34:43.165Z,4.37
2019-04-22T04:36:54.854Z,4.49
2019-04-22T04:42:07.746Z,4.69
2019-04-22T04:44:23.558Z,5.24
2019-04-22T04:47:05.987Z,5.67
2019-04-22T04:51:49.125Z,6.36
2019-04-22T04:59:28.125Z,8.41
2019-04-22T05:02:00.120Z,10.10
2019-04-22T05:06:57.209Z,10.99
2019-04-22T05:11:51.949Z,10.29
2019-04-22T05:14:14.469Z,9.69
2019-04-22T05:16:43.065Z,10.43
2019-04-22T05:21:31.041Z,11.99
2019-04-22T05:24:13.263Z,12.47
2019-04-22T05:26:46.919Z,12.62
2019-04-22T05:29:06.592Z,12.43
2019-04-22T05:31:38.993Z,11.30
2019-04-22T05:34:04.300Z,10.20
2019-04-22T05:36:37.981Z,9.53
2019-04-22T05:39:01.808Z,9.34
2019-04-22T05:41:32.377Z,9.23
2019-04-22T05:44:05.072Z,9.33
2019-04-22T05:46:32.729Z,9.30
2019-04-22T05:49:01.092Z,9.27
2019-04-22T05:51:31.229Z,9.32
2019-04-22T05:54:01.445Z,9.45
2019-04-22T05:56:34.817Z,9.63
2019-04-22T05:59:02.417Z,9.65
2019-04-22T06:01:38.878Z,9.84
2019-04-22T06:04:05.389Z,9.84
2019-04-22T06:06:39.940Z,10.03
2019-04-22T06:09:10.458Z,10.19
2019-04-22T06:11:29.608Z,10.29
2019-04-22T06:14:01.511Z,10.35
2019-04-22T06:16:39.524Z,10.47
2019-04-22T06:19:07.603Z,10.53
2019-04-22T06:21:38.733Z,10.45
2019-04-22T06:24:11.155Z,10.78
2019-04-22T06:26:48.914Z,10.97
2019-04-22T06:29:09.293Z,11.13
2019-04-22T06:31:54.448Z,11.30
2019-04-22T06:36:37.812Z,11.38
2019-04-22T06:38:59.144Z,11.36
2019-04-22T06:41:39.092Z,11.52
2019-04-22T06:44:09.075Z,11.90
2019-04-22T06:46:37.816Z,12.10
2019-04-22T06:49:03.639Z,12.17
2019-04-22T06:51:32.922Z,12.20
2019-04-22T06:54:03.346Z,12.34
2019-04-22T06:56:27.518Z,12.69
2019-04-22T06:58:57.794Z,12.94
2019-04-22T07:01:27.624Z,12.96
2019-04-22T07:04:01.500Z,13.11
2019-04-22T07:09:22.059Z,13.46
2019-04-22T07:11:23.659Z,13.52
2019-04-22T07:14:01.704Z,13.43
2019-04-22T07:18:54.485Z,14.19
2019-04-22T07:21:25.990Z,14.29
2019-04-22T07:24:17.887Z,14.17
2019-04-22T07:26:25.112Z,14.43
2019-04-22T07:28:56.439Z,14.52
2019-04-22T07:31:20.522Z,14.75
2019-04-22T07:33:56.860Z,14.69
2019-04-22T07:38:48.591Z,14.68
2019-04-22T07:41:23.091Z,15.11
2019-04-22T07:44:07.702Z,15.28
2019-04-22T07:46:18.649Z,15.47
2019-04-22T07:48:56.553Z,15.58
2019-04-22T07:51:23.462Z,15.79
2019-04-22T07:53:52.279Z,15.80
2019-04-22T07:56:24.372Z,15.58
2019-04-22T07:58:51.845Z,15.42
2019-04-22T08:04:00.965Z,15.70
2019-04-22T08:06:24.668Z,15.82
2019-04-22T08:08:56.618Z,16.07
2019-04-22T08:11:37.581Z,16.30
2019-04-22T08:13:46.631Z,16.40
2019-04-22T08:16:16.401Z,16.51
2019-04-22T08:18:47.416Z,16.66
2019-04-22T08:21:16.689Z,17.07
2019-04-22T08:23:50.894Z,16.66
2019-04-22T08:26:19.333Z,16.75
2019-04-22T08:28:53.312Z,17.02
2019-04-22T08:31:20.447Z,17.14
2019-04-22T08:33:47.165Z,17.33
2019-04-22T08:36:18.387Z,17.36
2019-04-22T08:38:53.992Z,17.23
2019-04-22T08:41:31.889Z,17.20
2019-04-22T08:43:56.575Z,17.34
2019-04-22T08:46:24.185Z,17.55
2019-04-22T08:48:47.834Z,17.84
2019-04-22T08:51:18.518Z,17.84
2019-04-22T08:53:51.880Z,17.66
2019-04-22T08:56:26.733Z,17.97
2019-04-22T08:58:53.709Z,18.10
2019-04-22T09:01:17.407Z,17.95
2019-04-22T09:03:46.909Z,18.22
2019-04-22T09:06:19.835Z,18.66
2019-04-22T09:08:48.732Z,18.54
2019-04-22T09:11:19.863Z,18.59
2019-04-22T09:13:50.100Z,18.92
2019-04-22T09:16:20.790Z,18.93
2019-04-22T09:18:48.323Z,19.04
2019-04-22T09:21:18.592Z,19.00
2019-04-22T09:26:18.524Z,19.14
2019-04-22T09:28:48.794Z,19.28
2019-04-22T09:31:11.389Z,19.27
2019-04-22T09:33:45.958Z,19.73
2019-04-22T09:36:16.211Z,19.51
2019-04-22T09:38:41.126Z,19.40
2019-04-22T09:41:13.973Z,19.68
2019-04-22T09:43:47.137Z,19.65
2019-04-22T09:46:19.731Z,19.74
2019-04-22T09:48:43.459Z,19.75
2019-04-22T09:51:12.005Z,19.96
2019-04-22T09:53:45.522Z,20.03
2019-04-22T09:56:13.682Z,19.99
2019-04-22T09:58:44.652Z,19.82
2019-04-22T10:01:24.552Z,20.16
2019-04-22T10:03:53.438Z,20.20
2019-04-22T10:11:37.702Z,20.01
2019-04-22T10:14:05.654Z,20.31
2019-04-22T10:21:47.888Z,20.52
2019-04-22T10:24:09.203Z,20.27
2019-04-22T10:26:39.456Z,20.68
2019-04-22T10:31:38.166Z,20.77
2019-04-22T10:33:56.099Z,20.60
2019-04-22T10:36:11.099Z,20.73
2019-04-22T10:38:48.712Z,20.74
2019-04-22T10:41:16.745Z,21.01
2019-04-22T10:43:45.369Z,21.28
2019-04-22T10:46:13.868Z,21.19
2019-04-22T10:48:42.128Z,20.83
2019-04-22T10:51:16.995Z,21.06
2019-04-22T10:53:45.471Z,21.01
2019-04-22T10:56:13.161Z,21.12
2019-04-22T10:58:40.893Z,21.10
2019-04-22T11:01:09.688Z,21.43
2019-04-22T11:03:37.546Z,21.68
2019-04-22T11:06:05.644Z,21.25
2019-04-22T11:08:42.430Z,21.49
2019-04-22T11:11:16.874Z,21.49
2019-04-22T11:13:34.113Z,21.74
2019-04-22T11:16:03.597Z,21.60
2019-04-22T11:18:31.689Z,21.89
2019-04-22T11:20:59.900Z,21.85
2019-04-22T11:23:28.792Z,21.87
2019-04-22T11:25:57.719Z,22.22
2019-04-22T11:28:27.917Z,21.97
2019-04-22T11:30:56.448Z,21.92
2019-04-22T11:33:24.810Z,21.86
2019-04-22T11:35:53.218Z,22.24
2019-04-22T11:38:22.672Z,22.35
2019-04-22T11:40:53.981Z,22.12
2019-04-22T11:43:21.915Z,22.22
2019-04-22T11:45:51.126Z,22.27
2019-04-22T11:48:19.556Z,22.09
2019-04-22T11:50:48.139Z,22.12
2019-04-22T11:53:16.701Z,22.28
2019-04-22T11:55:45.013Z,21.99
2019-04-22T11:58:12.963Z,22.49
2019-04-22T12:00:41.303Z,22.15
2019-04-22T12:03:09.322Z,21.93
2019-04-22T12:05:39.627Z,22.57
2019-04-22T12:08:09.118Z,22.42
2019-04-22T12:10:44.033Z,22.49
2019-04-22T12:13:12.392Z,22.20
2019-04-22T12:15:42.913Z,22.11
2019-04-22T12:18:13.080Z,22.58
2019-04-22T12:20:41.452Z,22.82
2019-04-22T12:23:09.577Z,22.62
2019-04-22T12:25:47.681Z,22.77
2019-04-22T12:28:08.961Z,22.37
2019-04-22T12:30:37.381Z,22.76
2019-04-22T12:33:10.546Z,23.09
2019-04-22T12:35:36.847Z,23.17
2019-04-22T12:38:08.181Z,22.77
2019-04-22T12:40:46.673Z,22.94
2019-04-22T12:43:08.666Z,23.05
2019-04-22T12:45:38.242Z,22.82
2019-04-22T12:48:06.443Z,22.79
2019-04-22T12:50:38.461Z,22.92
2019-04-22T12:53:10.400Z,22.95
2019-04-22T12:55:34.420Z,23.18
2019-04-22T12:58:02.923Z,23.03
2019-04-22T13:00:32.243Z,22.87
2019-04-22T13:03:01.130Z,22.91
2019-04-22T13:05:29.244Z,22.91
2019-04-22T13:07:57.837Z,22.99
2019-04-22T13:10:38.633Z,23.38
2019-04-22T13:12:58.671Z,23.15
2019-04-22T13:15:26.792Z,22.97
2019-04-22T13:18:05.795Z,22.91
2019-04-22T13:20:24.438Z,22.70
2019-04-22T13:22:52.787Z,22.33
2019-04-22T13:25:23.309Z,22.41
2019-04-22T13:27:51.163Z,22.72
2019-04-22T13:30:21.029Z,22.57
2019-04-22T13:32:49.166Z,23.03
2019-04-22T13:35:19.945Z,22.82
2019-04-22T13:37:48.953Z,23.33
2019-04-22T13:40:19.453Z,23.25
2019-04-22T13:42:51.077Z,23.71
2019-04-22T13:45:22.193Z,23.27
2019-04-22T13:48:08.787Z,23.27
2019-04-22T13:53:34.324Z,22.97
2019-04-22T13:58:02.614Z,22.87
2019-04-22T14:00:24.961Z,22.86
2019-04-22T14:03:10.885Z,22.82
2019-04-22T14:05:40.561Z,22.74
2019-04-22T14:08:10.249Z,22.76
2019-04-22T14:10:38.617Z,23.04
2019-04-22T14:13:07.897Z,22.73
2019-04-22T14:15:36.195Z,22.57
2019-04-22T14:18:05.280Z,22.81
2019-04-22T14:20:34.440Z,22.87
2019-04-22T14:23:04.042Z,23.01
2019-04-22T14:25:32.661Z,22.96
2019-04-22T14:28:06.111Z,22.91
2019-04-22T14:30:34.701Z,23.05
2019-04-22T14:33:04.919Z,22.80
2019-04-22T14:35:33.929Z,22.71
2019-04-22T14:38:04.222Z,22.77
2019-04-22T14:40:32.918Z,22.78
2019-04-22T14:43:25.248Z,22.84
2019-04-22T14:46:05.487Z,22.74
2019-04-22T14:48:33.594Z,22.64
2019-04-22T14:50:51.380Z,22.71
2019-04-22T14:53:23.543Z,22.71
2019-04-22T14:55:33.280Z,22.71
2019-04-22T14:58:01.149Z,22.50
2019-04-22T15:00:29.601Z,22.53
2019-04-22T15:02:57.572Z,22.63
2019-04-22T15:05:28.233Z,22.59
2019-04-22T15:07:57.189Z,22.52
2019-04-22T15:10:26.226Z,22.41
2019-04-22T15:12:57.397Z,22.39
2019-04-22T15:16:01.086Z,22.21
2019-04-22T15:19:07.473Z,22.60
2019-04-22T15:21:40.954Z,22.46
2019-04-22T15:24:25.199Z,22.32
2019-04-22T15:26:56.177Z,22.39
2019-04-22T15:29:25.359Z,22.26
2019-04-22T15:31:55.718Z,22.27
2019-04-22T15:34:24.998Z,22.16
2019-04-22T15:36:53.923Z,22.09
2019-04-22T15:39:23.206Z,21.90
2019-04-22T15:42:00.371Z,21.90
2019-04-22T15:44:21.981Z,21.85
2019-04-22T15:46:51.021Z,21.96
2019-04-22T15:49:20.229Z,21.81
2019-04-22T15:51:48.943Z,21.94
2019-04-22T15:54:17.181Z,21.96
2019-04-22T15:56:44.843Z,21.89
2019-04-22T15:59:32.949Z,22.00
2019-04-22T16:01:42.912Z,22.02
2019-04-22T16:04:12.652Z,22.00
2019-04-22T16:06:41.153Z,21.75
2019-04-22T16:09:11.108Z,21.80
2019-04-22T16:11:40.534Z,21.66
2019-04-22T16:14:08.803Z,21.67
2019-04-22T16:16:37.162Z,21.69
2019-04-22T16:19:06.644Z,21.69
2019-04-22T16:21:45.528Z,21.61
2019-04-22T16:24:34.067Z,21.60
2019-04-22T16:27:09.704Z,21.60
2019-04-22T16:29:38.949Z,21.49
2019-04-22T16:32:07.461Z,21.36
2019-04-22T16:34:36.043Z,21.40
2019-04-22T16:37:04.996Z,21.41
2019-04-22T16:39:33.136Z,21.31
2019-04-22T16:42:00.862Z,21.32
2019-04-22T16:44:30.375Z,21.35
2019-04-22T16:46:59.463Z,21.42
2019-04-22T16:49:27.698Z,21.19
2019-04-22T16:51:56.533Z,21.17
2019-04-22T16:54:27.812Z,21.07
2019-04-22T16:56:55.627Z,21.01
2019-04-22T16:59:24.541Z,20.85
2019-04-22T17:02:18.895Z,20.75
2019-04-22T17:05:05.628Z,21.09
2019-04-22T17:07:34.142Z,21.15
2019-04-22T17:10:03.848Z,20.89
2019-04-22T17:12:44.353Z,20.66
2019-04-22T17:15:08.031Z,20.93
2019-04-22T17:17:33.316Z,20.96
2019-04-22T17:20:01.038Z,20.60
2019-04-22T17:22:29.534Z,20.25
2019-04-22T17:24:58.244Z,20.26
2019-04-22T17:27:26.662Z,20.60
2019-04-22T17:29:54.769Z,20.75
2019-04-22T17:32:24.951Z,20.21
2019-04-22T17:34:53.833Z,19.91
2019-04-22T17:37:26.297Z,19.76
2019-04-22T17:40:09.732Z,19.72
2019-04-22T17:42:42.494Z,19.68
2019-04-22T17:45:22.118Z,19.30
2019-04-22T17:48:12.679Z,18.96
2019-04-22T17:50:48.481Z,18.95
2019-04-22T17:53:23.084Z,18.94
2019-04-22T17:55:50.620Z,18.68
2019-04-22T17:58:16.041Z,18.69
2019-04-22T18:00:36.584Z,18.46
2019-04-22T18:03:05.734Z,18.24
2019-04-22T18:05:33.104Z,18.21
2019-04-22T18:08:13.909Z,17.94
2019-04-22T18:10:42.288Z,17.85
2019-04-22T18:13:23.138Z,17.61
2019-04-22T18:15:45.168Z,17.71
2019-04-22T18:18:12.328Z,17.30
2019-04-22T18:20:38.172Z,17.31
2019-04-22T18:23:01.512Z,17.37
2019-04-22T18:25:36.417Z,17.44
2019-04-22T18:28:18.803Z,17.53
2019-04-22T18:30:35.260Z,17.33
2019-04-22T18:33:15.852Z,17.38
2019-04-22T18:35:42.171Z,17.21
2019-04-22T18:38:21.926Z,17.25
2019-04-22T18:40:43.322Z,17.00
2019-04-22T18:43:10.015Z,16.99
2019-04-22T18:45:46.858Z,16.98
2019-04-22T18:48:06.486Z,16.95
2019-04-22T18:50:52.558Z,16.63
2019-04-22T18:53:38.764Z,16.91
2019-04-22T18:56:16.481Z,16.82
2019-04-22T18:58:36.689Z,16.81
2019-04-22T19:00:54.839Z,16.84
2019-04-22T19:03:28.300Z,16.91
2019-04-22T19:06:25.994Z,16.83
2019-04-22T19:08:45.565Z,16.77
2019-04-22T19:11:27.159Z,16.59
2019-04-22T19:14:01.052Z,16.44
2019-04-22T19:18:45.918Z,16.33
2019-04-22T19:21:16.089Z,16.36
2019-04-22T19:23:49.161Z,16.34
2019-04-22T19:26:30.848Z,16.11
2019-04-22T19:28:49.772Z,16.22
2019-04-22T19:31:27.066Z,16.25
2019-04-22T19:33:56.222Z,16.05
2019-04-22T19:36:20.546Z,15.94
2019-04-22T19:38:49.733Z,16.08
2019-04-22T19:41:24.150Z,16.11
2019-04-22T19:43:50.296Z,16.21
2019-04-22T19:46:16.446Z,16.09
2019-04-22T19:48:49.719Z,16.01
2019-04-22T19:51:23.500Z,15.99
2019-04-22T19:53:51.992Z,15.96
2019-04-22T19:56:14.387Z,15.84
2019-04-22T19:58:41.473Z,15.65
2019-04-22T20:01:41.634Z,15.66
2019-04-22T20:04:29.295Z,15.66
2019-04-22T20:06:57.633Z,15.80
2019-04-22T20:12:00.700Z,15.75
2019-04-22T20:14:35.786Z,15.64
2019-04-22T20:16:54.432Z,15.66
2019-04-22T20:19:41.562Z,15.60
2019-04-22T20:22:03.515Z,15.48
2019-04-22T20:24:18.793Z,15.55
2019-04-22T20:27:10.585Z,15.41
2019-04-22T20:29:41.745Z,15.27
2019-04-22T20:32:05.461Z,15.09
2019-04-22T20:34:38.069Z,15.09
2019-04-22T20:37:10.635Z,14.92
2019-04-22T20:39:39.476Z,14.96
2019-04-22T20:42:21.356Z,14.88
2019-04-22T20:44:40.394Z,14.89
2019-04-22T20:47:05.867Z,15.08
2019-04-22T20:49:36.691Z,15.25
2019-04-22T20:52:13.651Z,15.16
2019-04-22T20:54:39.120Z,15.03
2019-04-22T20:57:05.913Z,15.09
2019-04-22T20:59:32.753Z,15.19
2019-04-22T21:02:03.722Z,15.29
2019-04-22T21:04:24.759Z,15.08
2019-04-22T21:07:03.745Z,15.10
2019-04-22T21:09:35.409Z,15.04
2019-04-22T21:12:02.252Z,15.04
2019-04-22T21:14:28.069Z,14.91
2019-04-22T21:17:08.070Z,14.77
2019-04-22T21:19:40.365Z,14.65
2019-04-22T21:22:08.077Z,14.51
2019-04-22T21:24:33.039Z,14.46
2019-04-22T21:27:12.101Z,14.24
2019-04-22T21:29:30.866Z,14.19
2019-04-22T21:32:07.926Z,14.13
2019-04-22T21:34:40.783Z,14.27
2019-04-22T21:37:07.565Z,14.39
2019-04-22T21:39:30.224Z,14.44
2019-04-22T21:41:58.891Z,14.39
2019-04-22T21:44:33.955Z,14.37
2019-04-22T21:47:09.941Z,14.24
2019-04-22T21:49:35.643Z,14.35
2019-04-22T21:52:06.446Z,14.31
2019-04-22T21:54:45.497Z,14.23
2019-04-22T21:57:28.007Z,14.22
2019-04-22T21:59:59.508Z,14.17
2019-04-22T22:02:28.553Z,14.15
2019-04-22T22:04:51.200Z,14.08
2019-04-22T22:07:13.959Z,14.08
2019-04-22T22:09:54.185Z,13.88
2019-04-22T22:12:26.385Z,13.88
2019-04-22T22:15:03.133Z,13.87
2019-04-22T22:17:28.243Z,13.87
2019-04-22T22:19:54.519Z,13.71
2019-04-22T22:22:42.194Z,13.81
2019-04-22T22:24:57.233Z,13.75
2019-04-22T22:27:33.473Z,13.63
2019-04-22T22:30:15.969Z,13.70
2019-04-22T22:32:32.432Z,13.70
2019-04-22T22:34:58.782Z,13.50
2019-04-22T22:37:16.953Z,13.44
2019-04-22T22:39:48.207Z,13.47
2019-04-22T22:42:10.854Z,13.50
2019-04-22T22:44:42.503Z,13.38
2019-04-22T22:47:27.353Z,13.49
2019-04-22T22:49:56.542Z,13.43
2019-04-22T22:54:58.863Z,13.44
2019-04-22T22:59:55.189Z,13.43
2019-04-22T23:02:25.841Z,13.34
2019-04-22T23:04:57.984Z,13.17
2019-04-22T23:07:28.877Z,13.20
2019-04-22T23:09:53.789Z,13.16
2019-04-22T23:14:57.555Z,12.99
2019-04-22T23:17:10.057Z,12.91
2019-04-22T23:19:38.208Z,12.94
2019-04-22T23:22:16.581Z,12.98
2019-04-22T23:25:19.161Z,12.91
2019-04-22T23:27:44.502Z,12.85
2019-04-22T23:30:25.462Z,12.77
2019-04-22T23:33:03.499Z,12.77
2019-04-22T23:35:36.951Z,12.79
2019-04-22T23:38:13.658Z,12.80
2019-04-22T23:40:47.765Z,12.75
2019-04-22T23:45:50.197Z,12.75
2019-04-22T23:48:27.108Z,12.65
2019-04-22T23:51:09.358Z,12.56
2019-04-22T23:56:08.140Z,12.42
